createdAt,value
2019-01-14T00:01:19.366Z,88.80
2019-01-14T00:04:02.276Z,89.10
2019-01-14T00:06:47.015Z,89.30
2019-01-14T00:09:31.110Z,89.20
2019-01-14T00:12:15.528Z,89.50
2019-01-14T00:14:59.634Z,89.70
2019-01-14T00:17:43.584Z,89.70
2019-01-14T00:20:27.111Z,89.80
2019-01-14T00:23:09.244Z,89.70
2019-01-14T00:25:51.533Z,89.70
2019-01-14T00:28:35.770Z,89.50
2019-01-14T00:31:17.502Z,89.60
2019-01-14T00:33:59.950Z,89.70
2019-01-14T00:36:41.774Z,89.70
2019-01-14T00:42:05.053Z,89.40
2019-01-14T00:44:49.217Z,90.20
2019-01-14T00:47:33.197Z,88.90
2019-01-14T00:50:14.874Z,88.70
2019-01-14T00:52:57.996Z,88.60
2019-01-14T00:55:41.938Z,88.40
2019-01-14T00:58:26.354Z,88.30
2019-01-14T01:01:10.475Z,87.80
2019-01-14T01:03:52.498Z,87.50
2019-01-14T01:06:34.399Z,87.20
2019-01-14T01:09:17.343Z,87.10
2019-01-14T01:11:59.186Z,87.00
2019-01-14T01:14:41.158Z,86.50
2019-01-14T01:20:04.682Z,84.80
2019-01-14T01:22:46.608Z,84.10
2019-01-14T01:25:29.681Z,83.20
2019-01-14T01:28:13.669Z,83.20
2019-01-14T01:30:55.968Z,82.90
2019-01-14T01:33:38.083Z,82.80
2019-01-14T01:36:20.066Z,83.00
2019-01-14T01:39:05.795Z,82.80
2019-01-14T01:41:50.183Z,82.70
2019-01-14T01:44:34.345Z,82.60
2019-01-14T01:47:16.031Z,82.60
2019-01-14T01:49:59.596Z,82.60
2019-01-14T01:52:41.873Z,82.70
2019-01-14T01:55:25.771Z,82.70
2019-01-14T01:58:07.481Z,83.00
2019-01-14T02:00:49.397Z,83.20
2019-01-14T02:03:31.452Z,83.10
2019-01-14T02:06:13.569Z,83.20
2019-01-14T02:08:55.801Z,83.20
2019-01-14T02:11:38.159Z,83.40
2019-01-14T02:14:22.769Z,83.60
2019-01-14T02:17:04.711Z,83.70
2019-01-14T02:19:46.638Z,84.10
2019-01-14T02:22:28.798Z,84.40
2019-01-14T02:25:10.866Z,84.60
2019-01-14T02:27:53.095Z,84.60
2019-01-14T02:30:34.953Z,84.50
2019-01-14T02:33:17.018Z,84.50
2019-01-14T02:35:59.475Z,84.30
2019-01-14T02:38:43.480Z,84.10
2019-01-14T02:41:25.497Z,83.60
2019-01-14T02:44:07.908Z,83.40
2019-01-14T02:46:49.906Z,83.20
2019-01-14T02:49:31.852Z,83.00
2019-01-14T02:52:14.789Z,83.00
2019-01-14T02:54:59.002Z,83.00
2019-01-14T02:57:41.313Z,83.20
2019-01-14T03:00:23.019Z,83.40
2019-01-14T03:03:05.413Z,83.60
2019-01-14T03:05:47.497Z,83.80
2019-01-14T03:08:30.522Z,83.90
2019-01-14T03:11:14.595Z,83.80
2019-01-14T03:13:57.421Z,83.60
2019-01-14T03:16:39.317Z,83.40
2019-01-14T03:19:21.656Z,83.30
2019-01-14T03:22:03.154Z,83.20
2019-01-14T03:24:45.960Z,83.60
2019-01-14T03:27:30.038Z,82.80
2019-01-14T03:30:12.995Z,82.40
2019-01-14T03:32:57.011Z,82.30
2019-01-14T03:35:39.928Z,82.10
2019-01-14T03:38:22.002Z,81.80
2019-01-14T03:41:05.005Z,81.60
2019-01-14T03:43:48.987Z,81.50
2019-01-14T03:46:32.078Z,80.90
2019-01-14T03:49:14.023Z,80.70
2019-01-14T03:51:57.091Z,80.50
2019-01-14T03:54:41.148Z,80.10
2019-01-14T03:57:23.900Z,80.20
2019-01-14T04:00:07.706Z,80.00
2019-01-14T04:02:50.950Z,79.40
2019-01-14T04:05:32.437Z,79.30
2019-01-14T04:08:14.526Z,78.90
2019-01-14T04:10:58.504Z,78.70
2019-01-14T04:13:40.276Z,78.90
2019-01-14T04:16:25.915Z,79.10
2019-01-14T04:19:07.763Z,79.90
2019-01-14T04:21:49.769Z,80.90
2019-01-14T04:24:31.890Z,81.20
2019-01-14T04:27:14.036Z,82.30
2019-01-14T04:29:56.465Z,82.70
2019-01-14T04:35:26.741Z,84.30
2019-01-14T04:38:10.757Z,83.70
2019-01-14T04:40:54.778Z,84.00
2019-01-14T04:43:36.637Z,83.60
2019-01-14T04:46:19.212Z,83.30
2019-01-14T04:49:03.115Z,83.00
2019-01-14T04:51:46.009Z,83.00
2019-01-14T04:54:29.990Z,83.10
2019-01-14T04:57:11.893Z,83.30
2019-01-14T05:02:35.056Z,84.20
2019-01-14T05:05:19.523Z,84.70
2019-01-14T05:08:01.485Z,85.20
2019-01-14T05:10:45.368Z,85.10
2019-01-14T05:13:27.294Z,84.80
2019-01-14T05:16:11.295Z,84.70
2019-01-14T05:18:55.716Z,84.70
2019-01-14T05:21:37.584Z,84.60
2019-01-14T05:24:20.804Z,84.70
2019-01-14T05:27:03.176Z,84.80
2019-01-14T05:29:44.632Z,84.60
2019-01-14T05:35:09.214Z,84.40
2019-01-14T05:37:51.577Z,84.40
2019-01-14T05:40:33.789Z,84.30
2019-01-14T05:43:18.123Z,84.30
2019-01-14T05:46:00.163Z,84.30
2019-01-14T05:48:42.034Z,84.40
2019-01-14T05:51:25.113Z,84.30
2019-01-14T05:54:09.255Z,84.50
2019-01-14T05:56:51.156Z,83.90
2019-01-14T05:59:35.180Z,83.90
2019-01-14T06:02:19.547Z,83.30
2019-01-14T06:05:01.473Z,83.10
2019-01-14T06:07:45.041Z,82.80
2019-01-14T06:10:29.222Z,82.90
2019-01-14T06:13:12.046Z,82.80
2019-01-14T06:15:54.224Z,82.80
2019-01-14T06:18:36.326Z,82.90
2019-01-14T06:21:18.477Z,82.90
2019-01-14T06:24:00.482Z,82.90
2019-01-14T06:26:42.550Z,82.60
2019-01-14T06:29:24.652Z,81.70
2019-01-14T06:32:06.610Z,81.40
2019-01-14T06:34:48.692Z,81.50
2019-01-14T06:37:30.397Z,81.90
2019-01-14T06:40:13.306Z,83.30
2019-01-14T06:42:57.282Z,85.50
2019-01-14T06:45:40.257Z,86.20
2019-01-14T06:48:24.354Z,85.60
2019-01-14T06:51:07.070Z,84.60
2019-01-14T06:53:49.091Z,83.50
2019-01-14T06:56:31.306Z,82.70
2019-01-14T06:59:13.280Z,81.90
2019-01-14T07:01:56.373Z,80.30
2019-01-14T07:04:38.378Z,78.90
2019-01-14T07:07:20.277Z,78.90
2019-01-14T07:10:02.526Z,78.30
2019-01-14T07:12:44.638Z,78.20
2019-01-14T07:15:26.515Z,77.90
2019-01-14T07:18:08.819Z,77.50
2019-01-14T07:20:51.120Z,76.90
2019-01-14T07:23:34.419Z,75.60
2019-01-14T07:26:18.450Z,74.50
2019-01-14T07:29:01.277Z,74.20
2019-01-14T07:31:43.237Z,74.10
2019-01-14T07:34:25.367Z,73.40
2019-01-14T07:37:09.251Z,72.60
2019-01-14T07:39:51.059Z,72.00
2019-01-14T07:42:32.643Z,72.00
2019-01-14T07:45:15.720Z,72.10
2019-01-14T07:47:59.653Z,72.30
2019-01-14T07:50:41.973Z,72.70
2019-01-14T07:53:25.984Z,72.60
2019-01-14T07:56:10.550Z,71.50
2019-01-14T07:58:53.216Z,70.20
2019-01-14T08:01:35.385Z,70.20
2019-01-14T08:04:17.557Z,69.20
2019-01-14T08:06:59.937Z,68.90
2019-01-14T08:09:42.003Z,68.90
2019-01-14T08:12:24.235Z,68.10
2019-01-14T08:15:06.207Z,65.80
2019-01-14T08:17:48.728Z,62.60
2019-01-14T08:20:33.007Z,57.70
2019-01-14T08:23:17.008Z,45.00
2019-01-14T08:25:59.235Z,44.20
2019-01-14T08:28:41.995Z,38.70
2019-01-14T08:31:26.186Z,34.40
2019-01-14T08:34:09.102Z,31.50
2019-01-14T08:37:00.692Z,30.30
2019-01-14T08:39:40.747Z,30.70
2019-01-14T08:42:23.099Z,31.30
2019-01-14T08:45:05.660Z,29.40
2019-01-14T08:47:47.574Z,27.90
2019-01-14T08:50:30.498Z,26.70
2019-01-14T08:53:13.452Z,25.80
2019-01-14T08:55:55.415Z,24.20
2019-01-14T08:58:37.599Z,23.40
2019-01-14T09:01:19.599Z,23.20
2019-01-14T09:04:01.817Z,23.40
2019-01-14T09:06:44.005Z,22.00
2019-01-14T09:09:28.153Z,21.10
2019-01-14T09:12:12.334Z,20.20
2019-01-14T09:14:56.312Z,19.70
2019-01-14T09:17:40.329Z,19.20
2019-01-14T09:20:24.377Z,20.00
2019-01-14T09:23:08.412Z,22.60
2019-01-14T09:25:53.995Z,22.90
2019-01-14T09:28:36.383Z,22.50
2019-01-14T09:31:19.664Z,22.30
2019-01-14T09:34:02.568Z,21.30
2019-01-14T09:36:46.593Z,20.60
2019-01-14T09:39:29.435Z,21.20
2019-01-14T09:42:11.499Z,20.80
2019-01-14T09:44:54.369Z,19.10
2019-01-14T09:47:36.514Z,18.40
2019-01-14T09:50:18.499Z,17.80
2019-01-14T09:53:00.787Z,16.30
2019-01-14T09:55:43.385Z,16.10
2019-01-14T10:01:08.419Z,16.10
2019-01-14T10:03:52.416Z,15.80
2019-01-14T10:06:34.933Z,14.90
2019-01-14T10:09:17.045Z,14.60
2019-01-14T10:11:58.849Z,14.80
2019-01-14T10:14:42.798Z,15.80
2019-01-14T10:17:28.353Z,17.10
2019-01-14T10:20:10.864Z,17.60
2019-01-14T10:22:53.759Z,21.00
2019-01-14T10:25:35.462Z,24.50
2019-01-14T10:28:17.434Z,33.00
2019-01-14T10:30:59.343Z,35.30
2019-01-14T10:33:41.451Z,42.50
2019-01-14T10:36:25.317Z,45.90
2019-01-14T10:39:08.441Z,46.90
2019-01-14T10:44:32.849Z,54.90
2019-01-14T10:47:15.001Z,56.40
2019-01-14T10:49:57.238Z,56.40
2019-01-14T10:52:41.582Z,56.50
2019-01-14T10:55:25.774Z,49.80
2019-01-14T10:58:08.153Z,48.60
2019-01-14T11:00:50.330Z,48.90
2019-01-14T11:06:13.785Z,34.70
2019-01-14T11:09:05.710Z,25.20
2019-01-14T11:11:42.062Z,26.30
2019-01-14T11:17:08.138Z,27.60
2019-01-14T11:19:52.059Z,26.80
2019-01-14T11:22:36.124Z,25.40
2019-01-14T11:25:20.353Z,22.80
2019-01-14T11:28:04.274Z,21.00
2019-01-14T11:30:48.349Z,20.20
2019-01-14T11:33:32.674Z,19.30
2019-01-14T11:42:33.458Z,24.10
2019-01-14T11:47:56.840Z,29.70
2019-01-14T11:50:40.844Z,30.90
2019-01-14T11:53:24.806Z,30.00
2019-01-14T11:56:06.730Z,29.80
2019-01-14T11:58:49.614Z,31.30
2019-01-14T12:01:31.826Z,32.70
2019-01-14T12:04:13.966Z,33.70
2019-01-14T12:06:58.269Z,32.70
2019-01-14T12:09:42.128Z,29.40
2019-01-14T12:12:27.998Z,29.30
2019-01-14T12:15:10.034Z,29.30
2019-01-14T12:17:51.924Z,29.00
2019-01-14T12:20:35.627Z,27.90
2019-01-14T12:23:19.712Z,27.00
2019-01-14T12:26:01.579Z,23.40
2019-01-14T12:28:45.566Z,20.80
2019-01-14T12:31:29.733Z,19.00
2019-01-14T12:34:13.646Z,18.00
2019-01-14T12:36:55.701Z,17.90
2019-01-14T12:39:39.968Z,18.70
2019-01-14T12:42:24.054Z,19.50
2019-01-14T12:45:08.318Z,20.30
2019-01-14T12:47:50.280Z,21.10
2019-01-14T12:50:32.056Z,22.50
2019-01-14T12:53:14.640Z,24.80
2019-01-14T12:55:56.439Z,27.40
2019-01-14T12:58:38.733Z,28.60
2019-01-14T13:01:21.043Z,30.50
2019-01-14T13:04:03.556Z,32.00
2019-01-14T13:06:45.412Z,33.10
2019-01-14T13:09:28.293Z,33.60
2019-01-14T13:12:10.412Z,34.80
2019-01-14T13:14:53.325Z,37.50
2019-01-14T13:17:37.328Z,40.70
2019-01-14T13:20:19.621Z,43.80
2019-01-14T13:25:43.012Z,47.50
2019-01-14T13:28:27.040Z,48.00
2019-01-14T13:31:09.045Z,48.60
2019-01-14T13:33:52.825Z,49.00
2019-01-14T13:36:36.689Z,48.90
2019-01-14T13:39:18.650Z,50.10
2019-01-14T13:42:01.078Z,50.80
2019-01-14T13:44:45.409Z,51.20
2019-01-14T13:47:29.275Z,50.80
2019-01-14T13:50:13.332Z,51.00
2019-01-14T13:52:58.242Z,51.00
2019-01-14T13:55:42.357Z,51.00
2019-01-14T13:58:24.592Z,50.90
2019-01-14T14:01:08.555Z,51.40
2019-01-14T14:03:50.449Z,52.60
2019-01-14T14:06:34.389Z,54.00
2019-01-14T14:09:18.761Z,55.00
2019-01-14T14:12:00.997Z,55.70
2019-01-14T14:14:43.158Z,56.50
2019-01-14T14:17:25.018Z,57.50
2019-01-14T14:20:07.821Z,58.70
2019-01-14T14:22:49.778Z,59.60
2019-01-14T14:25:32.789Z,60.30
2019-01-14T14:28:16.939Z,61.00
2019-01-14T14:30:59.935Z,61.50
2019-01-14T14:33:44.120Z,62.10
2019-01-14T14:36:26.276Z,62.10
2019-01-14T14:39:08.083Z,62.50
2019-01-14T14:41:52.152Z,62.70
2019-01-14T14:44:36.176Z,63.40
2019-01-14T14:47:20.401Z,63.80
2019-01-14T14:50:04.409Z,64.20
2019-01-14T14:52:48.617Z,64.80
2019-01-14T14:55:32.848Z,65.20
2019-01-14T14:58:14.994Z,66.10
2019-01-14T15:00:57.063Z,66.80
2019-01-14T15:03:39.427Z,67.40
2019-01-14T15:06:23.619Z,68.20
2019-01-14T15:09:08.426Z,68.30
2019-01-14T15:11:50.224Z,68.70
2019-01-14T15:14:32.290Z,69.20
2019-01-14T15:17:14.240Z,69.60
2019-01-14T15:19:56.217Z,69.80
2019-01-14T15:22:38.413Z,69.30
2019-01-14T15:25:20.564Z,68.80
2019-01-14T15:28:02.202Z,66.90
2019-01-14T15:30:45.024Z,66.20
2019-01-14T15:33:29.210Z,65.60
2019-01-14T15:36:10.878Z,64.80
2019-01-14T15:38:52.690Z,64.90
2019-01-14T15:41:34.828Z,65.00
2019-01-14T15:44:16.958Z,65.10
2019-01-14T15:46:58.853Z,65.60
2019-01-14T15:49:41.067Z,66.20
2019-01-14T15:52:22.925Z,67.90
2019-01-14T15:55:05.234Z,69.00
2019-01-14T15:57:47.348Z,69.00
2019-01-14T16:00:28.973Z,70.00
2019-01-14T16:03:11.060Z,70.70
2019-01-14T16:08:36.518Z,73.00
2019-01-14T16:11:18.649Z,74.20
2019-01-14T16:14:00.632Z,75.50
2019-01-14T16:16:42.893Z,76.00
2019-01-14T16:19:25.679Z,75.90
2019-01-14T16:22:07.582Z,76.60
2019-01-14T16:24:49.846Z,76.40
2019-01-14T16:27:31.791Z,76.90
2019-01-14T16:30:13.617Z,76.80
2019-01-14T16:32:57.012Z,76.00
2019-01-14T16:35:38.959Z,76.30
2019-01-14T16:38:21.306Z,76.40
2019-01-14T16:41:03.152Z,76.00
2019-01-14T16:43:44.907Z,75.80
2019-01-14T16:46:27.760Z,75.90
2019-01-14T16:49:12.180Z,75.80
2019-01-14T16:51:54.514Z,75.60
2019-01-14T16:54:36.690Z,75.90
2019-01-14T16:57:19.817Z,75.80
2019-01-14T17:00:04.139Z,75.50
2019-01-14T17:02:45.924Z,75.60
2019-01-14T17:05:31.006Z,75.40
2019-01-14T17:08:15.180Z,75.20
2019-01-14T17:10:59.537Z,75.20
2019-01-14T17:13:41.149Z,75.40
2019-01-14T17:16:25.173Z,75.60
2019-01-14T17:19:07.625Z,75.70
2019-01-14T17:21:49.706Z,75.80
2019-01-14T17:24:31.941Z,75.90
2019-01-14T17:27:14.009Z,76.40
2019-01-14T17:29:55.966Z,75.90
2019-01-14T17:32:37.988Z,75.80
2019-01-14T17:35:20.138Z,75.40
2019-01-14T17:38:02.120Z,75.40
2019-01-14T17:40:44.065Z,75.60
2019-01-14T17:46:09.494Z,75.20
2019-01-14T17:48:51.595Z,74.60
2019-01-14T17:51:33.994Z,74.50
2019-01-14T17:54:18.027Z,75.00
2019-01-14T17:57:02.470Z,75.80
2019-01-14T17:59:44.700Z,75.30
2019-01-14T18:02:27.040Z,74.20
2019-01-14T18:05:09.259Z,73.90
2019-01-14T18:07:52.308Z,73.70
2019-01-14T18:10:40.117Z,73.60
2019-01-14T18:13:20.251Z,72.90
2019-01-14T18:16:02.418Z,72.90
2019-01-14T18:18:44.454Z,73.50
2019-01-14T18:21:26.203Z,74.30
2019-01-14T18:24:09.068Z,74.40
2019-01-14T18:26:50.758Z,75.00
2019-01-14T18:29:32.945Z,75.30
2019-01-14T18:32:15.654Z,76.80
2019-01-14T18:34:57.250Z,78.40
2019-01-14T18:37:39.291Z,79.60
2019-01-14T18:40:21.879Z,81.40
2019-01-14T18:43:03.933Z,83.20
2019-01-14T18:45:46.146Z,84.80
2019-01-14T18:48:28.158Z,85.60
2019-01-14T18:51:10.260Z,86.80
2019-01-14T18:53:52.276Z,86.30
2019-01-14T18:56:34.076Z,85.90
2019-01-14T18:59:17.661Z,85.70
2019-01-14T19:01:59.475Z,85.60
2019-01-14T19:04:41.601Z,84.60
2019-01-14T19:07:23.791Z,83.60
2019-01-14T19:10:06.378Z,82.40
2019-01-14T19:12:49.529Z,81.40
2019-01-14T19:15:21.158Z,80.50
2019-01-14T19:18:10.689Z,79.10
2019-01-14T19:20:53.012Z,78.80
2019-01-14T19:23:37.096Z,77.90
2019-01-14T19:26:18.910Z,77.30
2019-01-14T19:29:02.579Z,75.20
2019-01-14T19:31:46.802Z,74.00
2019-01-14T19:34:28.381Z,73.10
2019-01-14T19:37:10.647Z,71.80
2019-01-14T19:39:52.778Z,69.80
2019-01-14T19:42:34.624Z,70.70
2019-01-14T19:45:16.724Z,69.20
2019-01-14T19:47:58.773Z,69.30
2019-01-14T19:50:41.834Z,68.80
2019-01-14T19:53:24.180Z,68.80
2019-01-14T19:56:06.068Z,68.50
2019-01-14T19:58:48.336Z,68.20
2019-01-14T20:01:29.930Z,68.60
2019-01-14T20:04:11.829Z,68.40
2019-01-14T20:06:55.997Z,68.50
2019-01-14T20:09:40.107Z,67.50
2019-01-14T20:12:22.176Z,66.90
2019-01-14T20:15:04.419Z,66.90
2019-01-14T20:20:27.217Z,66.80
2019-01-14T20:23:08.976Z,66.50
2019-01-14T20:25:51.437Z,66.40
2019-01-14T20:28:35.920Z,66.40
2019-01-14T20:31:06.572Z,65.80
2019-01-14T20:33:48.696Z,65.10
2019-01-14T20:36:31.851Z,64.40
2019-01-14T20:39:13.834Z,64.00
2019-01-14T20:41:55.815Z,64.10
2019-01-14T20:44:40.089Z,64.30
2019-01-14T20:47:24.008Z,64.10
2019-01-14T20:50:08.059Z,64.00
2019-01-14T20:52:49.772Z,64.50
2019-01-14T20:55:31.767Z,64.60
2019-01-14T20:58:14.166Z,63.50
2019-01-14T21:00:58.698Z,63.60
2019-01-14T21:03:40.818Z,63.50
2019-01-14T21:06:22.636Z,63.50
2019-01-14T21:09:05.567Z,64.10
2019-01-14T21:11:49.333Z,64.00
2019-01-14T21:14:31.274Z,63.90
2019-01-14T21:17:13.362Z,63.90
2019-01-14T21:19:55.649Z,64.10
2019-01-14T21:22:39.652Z,63.80
2019-01-14T21:25:21.610Z,64.10
2019-01-14T21:28:03.609Z,64.20
2019-01-14T21:30:45.368Z,64.70
2019-01-14T21:33:27.209Z,64.70
2019-01-14T21:36:09.897Z,65.10
2019-01-14T21:38:51.911Z,65.70
2019-01-14T21:41:34.442Z,65.90
2019-01-14T21:44:16.501Z,66.20
2019-01-14T21:46:59.387Z,66.50
2019-01-14T21:49:41.423Z,66.70
2019-01-14T21:52:23.168Z,67.10
2019-01-14T21:55:05.107Z,67.00
2019-01-14T21:57:48.985Z,66.80
2019-01-14T22:00:30.772Z,66.60
2019-01-14T22:03:13.425Z,66.10
2019-01-14T22:05:55.490Z,66.00
2019-01-14T22:08:37.159Z,65.80
2019-01-14T22:11:21.109Z,65.90
2019-01-14T22:14:04.974Z,66.00
2019-01-14T22:16:46.821Z,66.20
2019-01-14T22:19:28.766Z,65.80
2019-01-14T22:22:10.383Z,65.80
2019-01-14T22:24:53.226Z,65.70
2019-01-14T22:27:35.130Z,65.20
2019-01-14T22:30:17.243Z,65.00
2019-01-14T22:32:59.381Z,65.00
2019-01-14T22:35:41.493Z,65.10
2019-01-14T22:38:23.539Z,65.10
2019-01-14T22:41:05.753Z,65.40
2019-01-14T22:43:49.681Z,65.20
2019-01-14T22:46:31.817Z,64.80
2019-01-14T22:49:13.889Z,64.80
2019-01-14T22:51:55.916Z,64.60
2019-01-14T22:54:37.940Z,64.50
2019-01-14T22:57:20.265Z,64.30
2019-01-14T23:00:07.379Z,64.50
2019-01-14T23:02:51.771Z,64.60
2019-01-14T23:05:33.893Z,64.40
2019-01-14T23:08:16.020Z,64.30
2019-01-14T23:10:59.101Z,65.50
2019-01-14T23:13:41.314Z,64.80
2019-01-14T23:16:23.206Z,64.80
2019-01-14T23:19:05.033Z,65.20
2019-01-14T23:21:47.004Z,65.00
2019-01-14T23:24:29.914Z,64.80
2019-01-14T23:27:13.837Z,64.80
2019-01-14T23:29:56.781Z,65.00
2019-01-14T23:32:38.853Z,65.50
2019-01-14T23:35:21.630Z,65.60
2019-01-14T23:38:03.410Z,65.70
2019-01-14T23:40:45.341Z,66.80
2019-01-14T23:43:27.463Z,65.80
2019-01-14T23:46:09.593Z,65.60
2019-01-14T23:48:51.430Z,65.90
2019-01-14T23:51:33.202Z,65.90
2019-01-14T23:54:15.286Z,66.10
2019-01-14T23:56:58.496Z,66.20
2019-01-14T23:59:40.692Z,66.10
